Details From LEVC - Valencia
To LERS - Reus
Flight Number -
Tags generated
Created
Modified
Stats Distance 125 nm / 232 km
Max Altitude 15,400 ft / 4,694 m
Waypoints 3
Social Downloads 1
Likes 0
Share VATSIM

Download

Looking for another format? Having issues loading an existing format? Contact us
Advertisement - Login to hide

Notes

Basic altitude profile: - Ascent Rate: 2500ft/min - Ascent Speed: 250kts - Cruise Altitude: 35000ft - Cruise Speed: 420kts - Descent Rate: 1500ft/min - Descent Speed: 250kts Options: - Use NATs: yes - Use PACOTS: yes - Use low airways: yes - Use high airways: no

Route

LEVC CASIM LERS

ID Type Via Altitude Latitude Longitude Leg Dist Tot Dist Heading (true) Name
O LEVC APT - 0 ft / 0 m 39.48824˚ -0.48389˚ - 0 nm - Valencia
CASIM FIX - 15,400 ft / 4,694 m 40.23083˚ 0.14296˚ 53 nm 53 nm 33° / 33° -
O LERS APT - 0 ft / 0 m 41.14462˚ 1.16551˚ 71 nm 125 nm 40° / 41° Reus

Altitude Profile

Advertisement - Login to hide

LEVC

Details ICAO LEVC (VLC)
Name Valencia
Region Spain
Timezone Europe/Madrid (UTC+2.0)
Stats Elevation 225 ft / 69 m (AMSL)
Location 39.488236° -0.483892°
Runways 2
Magnetic Variation 0.242° E

METAR

LEVC 262130Z VRB01KT 9999 FEW012 20/17 Q1015 NOSIG

Decode

TAF

TAF LEVC 261700Z 2618/2718 08010KT 9999 SCT030 TX27/2712Z TN16/2706Z BECMG 2618/2621 VRB03KT PROB30 TEMPO 2622/2707 BKN010 BECMG 2710/2712 10010KT

Decode

Departure Runways

ID Width Length Bearing (true) Bearing (mag) Surface Threshold Offset Overrun Length
12 148 ft / 45 m 10,555 ft / 3,217 m 116.25° 116.01° Asphalt 0 ft / 0 m 646 ft / 197 m
22 154 ft / 47 m 3,828 ft / 1,167 m 217.99° 217.75° Asphalt 0 ft / 0 m 0 ft / 0 m
30 148 ft / 45 m 10,555 ft / 3,217 m 296.27° 296.03° Asphalt 1,001 ft / 305 m 932 ft / 284 m
4 154 ft / 47 m 3,828 ft / 1,167 m 37.98° 37.74° Asphalt 0 ft / 0 m 0 ft / 0 m

LERS

Details ICAO LERS (REU)
Name Reus
Region Spain
Timezone Europe/Madrid (UTC+2.0)
Stats Elevation 0 ft / 0 m (AMSL)
Location 41.144615° 1.165505°
Runways 2
Magnetic Variation 0.641° E

METAR

LERS 262130Z 05001KT 9999 SCT024 20/17 Q1014

Decode

TAF

TAF LERS 262000Z 2621/2721 02005KT 9999 BKN025 TX27/2713Z TN18/2706Z BECMG 2710/2712 12010KT BECMG 2716/2718 05005KT

Decode

Destination Runways

ID Width Length Bearing (true) Bearing (mag) Surface Threshold Offset Overrun Length
12 115 ft / 35 m 3,120 ft / 951 m 290.95° 290.31° Grass 0 ft / 0 m 0 ft / 0 m
25 148 ft / 45 m 8,062 ft / 2,457 m 248.91° 248.27° Asphalt 0 ft / 0 m 0 ft / 0 m
30 115 ft / 35 m 3,120 ft / 951 m 110.95° 110.31° Grass 0 ft / 0 m 0 ft / 0 m
7 148 ft / 45 m 8,062 ft / 2,457 m 68.89° 68.25° Asphalt 883 ft / 269 m 0 ft / 0 m

Approach Navaids

Runway Type Ident Frequency Range Bearing (true) Bearing (mag) Slope Elevation
25 Localiser IRS 110.10 MHz 18 nm / 33 km 248.87° 248.23° - 0 ft / 0 m (AMSL)
25 Glidescope IRS 110.10 MHz 10 nm / 19 km 248.90° 248.26° 3.00° 0 ft / 0 m (AMSL)
25 DME IRS 110.10 MHz 18 nm / 33 km - - - 257 ft / 78 m (AMSL)

Popular Alternatives